RYR7NM LIPH-LROP
Flight info
| Callsign | RYR7NM |
|---|---|
| Flight time | 1h 31m |
| Altitude | 19000 |
| Route | INBUT N503 LAREN/N0390F180 Q561 AKADO/N0396F190 L615 ROTAR/N0459F350 DCT NAKIT DCT PUL DCT ENUPU DCT VELIP DCT TOSVI |
| Aircraft | B738/M-SDE2E3FGHIRWXY/LB1 |
Departure
| Time | 2026-05-06 16:57 |
|---|---|
| Airport | Treviso Airport (LIPH) |
Arrival
| Time | 2026-05-06 18:28 |
|---|---|
| Airport | Bucharest Henri Coandă International Airport (LROP) |
| Time | Latitude | Longitude | Altitude | Speed | Heading |
|---|---|---|---|---|---|
| 2026-05-06 16:27 | 45.65339 | 12.20267 | 62 ft | 0 kts | 339° |
| 2026-05-06 16:48 | 45.65333 | 12.20270 | 59 ft | 2 kts | 339° |
| 2026-05-06 16:48 | 45.65318 | 12.20279 | 60 ft | 2 kts | 339° |
| 2026-05-06 16:48 | 45.65302 | 12.20287 | 54 ft | 2 kts | 339° |
| 2026-05-06 16:48 | 45.65287 | 12.20296 | 54 ft | 2 kts | 339° |
| 2026-05-06 16:49 | 45.65282 | 12.20302 | 55 ft | 0 kts | 65° |
| 2026-05-06 16:49 | 45.65279 | 12.20291 | 55 ft | 0 kts | 68° |
| 2026-05-06 16:53 | 45.65283 | 12.20307 | 58 ft | 5 kts | 68° |
| 2026-05-06 16:54 | 45.65302 | 12.20376 | 60 ft | 10 kts | 68° |
| 2026-05-06 16:54 | 45.65330 | 12.20485 | 60 ft | 14 kts | 70° |
| 2026-05-06 16:54 | 45.65367 | 12.20626 | 56 ft | 11 kts | 68° |
| 2026-05-06 16:54 | 45.65362 | 12.20725 | 59 ft | 11 kts | 143° |
| 2026-05-06 16:55 | 45.65291 | 12.20770 | 61 ft | 11 kts | 159° |
| 2026-05-06 16:55 | 45.65219 | 12.20774 | 62 ft | 11 kts | 221° |
| 2026-05-06 16:55 | 45.65204 | 12.20733 | 55 ft | 0 kts | 246° |
| 2026-05-06 16:56 | 45.65192 | 12.20694 | 61 ft | 19 kts | 246° |
| 2026-05-06 16:56 | 45.65055 | 12.20181 | 58 ft | 91 kts | 249° |
| 2026-05-06 16:57 | 45.64750 | 12.19040 | 58 ft | 152 kts | 249° |
| 2026-05-06 16:57 | 45.64323 | 12.17400 | 165 ft | 195 kts | 249° |
| 2026-05-06 16:57 | 45.63785 | 12.15635 | 905 ft | 186 kts | 243° |
| 2026-05-06 16:57 | 45.63257 | 12.14045 | 1980 ft | 172 kts | 247° |
| 2026-05-06 16:58 | 45.62808 | 12.12415 | 2474 ft | 188 kts | 245° |
| 2026-05-06 16:58 | 45.62235 | 12.10601 | 2753 ft | 211 kts | 244° |
| 2026-05-06 16:58 | 45.61590 | 12.08600 | 2932 ft | 231 kts | 244° |
| 2026-05-06 16:58 | 45.60903 | 12.06477 | 3357 ft | 237 kts | 244° |
| 2026-05-06 16:59 | 45.60210 | 12.04338 | 3887 ft | 238 kts | 244° |
| 2026-05-06 16:59 | 45.59514 | 12.02193 | 4456 ft | 239 kts | 245° |
| 2026-05-06 16:59 | 45.58798 | 11.99989 | 4778 ft | 254 kts | 245° |
| 2026-05-06 16:59 | 45.58040 | 11.97661 | 5306 ft | 260 kts | 245° |
| 2026-05-06 17:00 | 45.57527 | 11.96084 | 5908 ft | 258 kts | 245° |
| 2026-05-06 17:00 | 45.56773 | 11.93771 | 6721 ft | 257 kts | 245° |
| 2026-05-06 17:00 | 45.56014 | 11.91447 | 7428 ft | 259 kts | 245° |
| 2026-05-06 17:00 | 45.55249 | 11.89109 | 8154 ft | 260 kts | 245° |
| 2026-05-06 17:01 | 45.54480 | 11.86760 | 8879 ft | 262 kts | 245° |
| 2026-05-06 17:01 | 45.53450 | 11.84623 | 9578 ft | 266 kts | 222° |
| 2026-05-06 17:01 | 45.51812 | 11.83370 | 10192 ft | 276 kts | 199° |
| 2026-05-06 17:01 | 45.49813 | 11.83217 | 10356 ft | 307 kts | 172° |
| 2026-05-06 17:02 | 45.47797 | 11.84553 | 10532 ft | 336 kts | 148° |
| 2026-05-06 17:02 | 45.45891 | 11.86648 | 10681 ft | 356 kts | 145° |
| 2026-05-06 17:02 | 45.43901 | 11.88897 | 10846 ft | 374 kts | 146° |
| 2026-05-06 17:02 | 45.41844 | 11.91182 | 11256 ft | 381 kts | 146° |
| 2026-05-06 17:03 | 45.39728 | 11.93491 | 11853 ft | 384 kts | 147° |
| 2026-05-06 17:03 | 45.37590 | 11.95777 | 12479 ft | 386 kts | 147° |
| 2026-05-06 17:03 | 45.35426 | 11.98078 | 13089 ft | 390 kts | 147° |
| 2026-05-06 17:03 | 45.33244 | 12.00399 | 13702 ft | 393 kts | 147° |
| 2026-05-06 17:04 | 45.31072 | 12.02796 | 14261 ft | 399 kts | 141° |
| 2026-05-06 17:04 | 45.29374 | 12.05979 | 14821 ft | 413 kts | 119° |
| 2026-05-06 17:04 | 45.28535 | 12.09912 | 15437 ft | 423 kts | 99° |
| 2026-05-06 17:04 | 45.28641 | 12.14118 | 15989 ft | 432 kts | 82° |
| 2026-05-06 17:05 | 45.29190 | 12.18335 | 16522 ft | 436 kts | 80° |
| 2026-05-06 17:05 | 45.29788 | 12.22586 | 17016 ft | 442 kts | 80° |
| 2026-05-06 17:05 | 45.30383 | 12.26883 | 17527 ft | 446 kts | 80° |
| 2026-05-06 17:05 | 45.30959 | 12.31229 | 18052 ft | 450 kts | 81° |
| 2026-05-06 17:06 | 45.31511 | 12.35564 | 18522 ft | 453 kts | 81° |
| 2026-05-06 17:06 | 45.32063 | 12.39989 | 18865 ft | 456 kts | 81° |
| 2026-05-06 17:06 | 45.32612 | 12.44427 | 18862 ft | 455 kts | 82° |
| 2026-05-06 17:06 | 45.32921 | 12.48901 | 18904 ft | 457 kts | 91° |
| 2026-05-06 17:07 | 45.32746 | 12.53426 | 19307 ft | 458 kts | 100° |
| 2026-05-06 17:07 | 45.32099 | 12.57835 | 19875 ft | 455 kts | 107° |
| 2026-05-06 17:07 | 45.31312 | 12.62197 | 20395 ft | 457 kts | 107° |
| 2026-05-06 17:07 | 45.30515 | 12.66583 | 20813 ft | 460 kts | 107° |
| 2026-05-06 17:08 | 45.29738 | 12.71011 | 21216 ft | 464 kts | 106° |
| 2026-05-06 17:08 | 45.28974 | 12.75481 | 21657 ft | 467 kts | 106° |
| 2026-05-06 17:08 | 45.28236 | 12.79990 | 22092 ft | 470 kts | 103° |
| 2026-05-06 17:08 | 45.27703 | 12.84595 | 22497 ft | 474 kts | 99° |
| 2026-05-06 17:09 | 45.27290 | 12.89249 | 22897 ft | 477 kts | 98° |
| 2026-05-06 17:09 | 45.26871 | 12.93929 | 23285 ft | 479 kts | 99° |
| 2026-05-06 17:09 | 45.26411 | 12.98628 | 23657 ft | 481 kts | 100° |
| 2026-05-06 17:09 | 45.25796 | 13.03244 | 23987 ft | 482 kts | 104° |
| 2026-05-06 17:10 | 45.25038 | 13.07876 | 24321 ft | 483 kts | 106° |
| 2026-05-06 17:10 | 45.24236 | 13.12511 | 24657 ft | 485 kts | 106° |
| 2026-05-06 17:10 | 45.23428 | 13.17171 | 24984 ft | 487 kts | 106° |
| 2026-05-06 17:10 | 45.22631 | 13.21848 | 25298 ft | 489 kts | 105° |
| 2026-05-06 17:11 | 45.21844 | 13.26554 | 25619 ft | 491 kts | 105° |
| 2026-05-06 17:11 | 45.21060 | 13.31282 | 25923 ft | 493 kts | 105° |
| 2026-05-06 17:11 | 45.20272 | 13.36017 | 26218 ft | 495 kts | 105° |
| 2026-05-06 17:11 | 45.19340 | 13.40717 | 26496 ft | 494 kts | 113° |
| 2026-05-06 17:12 | 45.17927 | 13.45137 | 26772 ft | 492 kts | 122° |
| 2026-05-06 17:12 | 45.16110 | 13.49228 | 27045 ft | 489 kts | 130° |
| 2026-05-06 17:12 | 45.13911 | 13.52890 | 27330 ft | 488 kts | 136° |
| 2026-05-06 17:12 | 45.11622 | 13.56442 | 27689 ft | 487 kts | 136° |
| 2026-05-06 17:13 | 45.09340 | 13.59976 | 28113 ft | 485 kts | 136° |
| 2026-05-06 17:13 | 45.07078 | 13.63508 | 28553 ft | 484 kts | 136° |
| 2026-05-06 17:13 | 45.04833 | 13.67048 | 28963 ft | 482 kts | 136° |
| 2026-05-06 17:13 | 45.02603 | 13.70584 | 29346 ft | 482 kts | 135° |
| 2026-05-06 17:14 | 45.00375 | 13.74125 | 29730 ft | 481 kts | 135° |
| 2026-05-06 17:14 | 44.98150 | 13.77659 | 30113 ft | 480 kts | 136° |
| 2026-05-06 17:14 | 44.95932 | 13.81175 | 30437 ft | 480 kts | 136° |
| 2026-05-06 17:14 | 44.93708 | 13.84691 | 30732 ft | 480 kts | 136° |
| 2026-05-06 17:15 | 44.91570 | 13.88338 | 31002 ft | 484 kts | 127° |
| 2026-05-06 17:15 | 44.89979 | 13.92553 | 31288 ft | 490 kts | 114° |
| 2026-05-06 17:15 | 44.89015 | 13.97180 | 31615 ft | 494 kts | 102° |
| 2026-05-06 17:15 | 44.88712 | 14.02014 | 31912 ft | 495 kts | 94° |
| 2026-05-06 17:16 | 44.88601 | 14.06877 | 32206 ft | 495 kts | 93° |
| 2026-05-06 17:16 | 44.88520 | 14.11734 | 32465 ft | 496 kts | 93° |
| 2026-05-06 17:16 | 44.88436 | 14.16590 | 32745 ft | 495 kts | 93° |
| 2026-05-06 17:16 | 44.88336 | 14.21433 | 33061 ft | 494 kts | 94° |
| 2026-05-06 17:17 | 44.88219 | 14.26262 | 33393 ft | 492 kts | 94° |
| 2026-05-06 17:17 | 44.88086 | 14.31090 | 33649 ft | 492 kts | 94° |
| 2026-05-06 17:17 | 44.87944 | 14.35901 | 33916 ft | 492 kts | 94° |
| 2026-05-06 17:17 | 44.87795 | 14.40716 | 34148 ft | 491 kts | 94° |
| 2026-05-06 17:18 | 44.87643 | 14.45523 | 34409 ft | 490 kts | 94° |
| 2026-05-06 17:18 | 44.87490 | 14.50313 | 34683 ft | 488 kts | 94° |
| 2026-05-06 17:18 | 44.87337 | 14.55087 | 34917 ft | 487 kts | 94° |
| 2026-05-06 17:18 | 44.87181 | 14.59861 | 35116 ft | 487 kts | 94° |
| 2026-05-06 17:19 | 44.87024 | 14.64629 | 35320 ft | 487 kts | 94° |
| 2026-05-06 17:19 | 44.86866 | 14.69396 | 35538 ft | 486 kts | 94° |
| 2026-05-06 17:19 | 44.86706 | 14.74161 | 35747 ft | 486 kts | 94° |
| 2026-05-06 17:19 | 44.86545 | 14.78918 | 35939 ft | 486 kts | 94° |
| 2026-05-06 17:20 | 44.86381 | 14.83670 | 36141 ft | 485 kts | 94° |
| 2026-05-06 17:20 | 44.86216 | 14.88424 | 36336 ft | 485 kts | 94° |
| 2026-05-06 17:20 | 44.86051 | 14.93102 | 36519 ft | 485 kts | 94° |
| 2026-05-06 17:20 | 44.85880 | 14.97908 | 36714 ft | 485 kts | 94° |
| 2026-05-06 17:21 | 44.85709 | 15.02647 | 36913 ft | 484 kts | 94° |
| 2026-05-06 17:21 | 44.85362 | 15.12091 | 36929 ft | 486 kts | 94° |
| 2026-05-06 17:22 | 44.85006 | 15.21589 | 36961 ft | 485 kts | 94° |
| 2026-05-06 17:22 | 44.84642 | 15.31086 | 36946 ft | 484 kts | 94° |
| 2026-05-06 17:23 | 44.84273 | 15.40539 | 36983 ft | 483 kts | 96° |
| 2026-05-06 17:23 | 44.83894 | 15.50002 | 36961 ft | 484 kts | 96° |
| 2026-05-06 17:24 | 44.83506 | 15.59480 | 36948 ft | 484 kts | 96° |
| 2026-05-06 17:24 | 44.83111 | 15.68959 | 36956 ft | 485 kts | 96° |
| 2026-05-06 17:25 | 44.82707 | 15.78461 | 36942 ft | 486 kts | 96° |
| 2026-05-06 17:25 | 44.82294 | 15.87985 | 36942 ft | 487 kts | 96° |
| 2026-05-06 17:26 | 44.81873 | 15.97526 | 36948 ft | 489 kts | 96° |
| 2026-05-06 17:26 | 44.81445 | 16.07029 | 36941 ft | 490 kts | 96° |
| 2026-05-06 17:27 | 44.81005 | 16.16619 | 36940 ft | 491 kts | 96° |
| 2026-05-06 17:27 | 44.80557 | 16.26212 | 36940 ft | 491 kts | 96° |
| 2026-05-06 17:28 | 44.80101 | 16.35817 | 36930 ft | 492 kts | 96° |
| 2026-05-06 17:28 | 44.79636 | 16.45419 | 36930 ft | 491 kts | 96° |
| 2026-05-06 17:29 | 44.79164 | 16.55014 | 36922 ft | 490 kts | 96° |
| 2026-05-06 17:29 | 44.78685 | 16.64579 | 36917 ft | 490 kts | 96° |
| 2026-05-06 17:30 | 44.78199 | 16.74136 | 36931 ft | 489 kts | 96° |
| 2026-05-06 17:30 | 44.77705 | 16.83681 | 36918 ft | 488 kts | 96° |
| 2026-05-06 17:31 | 44.77206 | 16.93150 | 36932 ft | 488 kts | 96° |
| 2026-05-06 17:31 | 44.76698 | 17.02672 | 36922 ft | 487 kts | 96° |
| 2026-05-06 17:32 | 44.76181 | 17.12183 | 36919 ft | 488 kts | 96° |
| 2026-05-06 17:32 | 44.75656 | 17.21713 | 36917 ft | 488 kts | 96° |
| 2026-05-06 17:33 | 44.75122 | 17.31241 | 36924 ft | 489 kts | 97° |
| 2026-05-06 17:33 | 44.74580 | 17.40790 | 36915 ft | 489 kts | 97° |
| 2026-05-06 17:34 | 44.74029 | 17.50338 | 36917 ft | 490 kts | 97° |
| 2026-05-06 17:34 | 44.73471 | 17.59891 | 36914 ft | 490 kts | 97° |
| 2026-05-06 17:35 | 44.72904 | 17.69445 | 36918 ft | 489 kts | 97° |
| 2026-05-06 17:35 | 44.72330 | 17.78984 | 36917 ft | 489 kts | 97° |
| 2026-05-06 17:36 | 44.71458 | 17.93216 | 36909 ft | 489 kts | 97° |
| 2026-05-06 17:36 | 44.70865 | 18.02736 | 36913 ft | 488 kts | 97° |
| 2026-05-06 17:37 | 44.70265 | 18.12239 | 36915 ft | 488 kts | 97° |
| 2026-05-06 17:37 | 44.69658 | 18.21732 | 36914 ft | 487 kts | 97° |
| 2026-05-06 17:38 | 44.69044 | 18.31209 | 36917 ft | 487 kts | 97° |
| 2026-05-06 17:38 | 44.68422 | 18.40684 | 36912 ft | 487 kts | 97° |
| 2026-05-06 17:39 | 44.67792 | 18.50148 | 36915 ft | 486 kts | 97° |
| 2026-05-06 17:39 | 44.67156 | 18.59602 | 36910 ft | 486 kts | 98° |
| 2026-05-06 17:40 | 44.66512 | 18.69046 | 36909 ft | 486 kts | 97° |
| 2026-05-06 17:40 | 44.65861 | 18.78484 | 36912 ft | 485 kts | 98° |
| 2026-05-06 17:41 | 44.65315 | 18.86306 | 36917 ft | 484 kts | 98° |
| 2026-05-06 17:41 | 44.64652 | 18.95712 | 36911 ft | 484 kts | 98° |
| 2026-05-06 17:42 | 44.63982 | 19.05103 | 36912 ft | 483 kts | 98° |
| 2026-05-06 17:42 | 44.63303 | 19.14495 | 36907 ft | 483 kts | 98° |
| 2026-05-06 17:43 | 44.62620 | 19.23868 | 36912 ft | 482 kts | 98° |
| 2026-05-06 17:43 | 44.61930 | 19.33229 | 36908 ft | 481 kts | 97° |
| 2026-05-06 17:44 | 44.62056 | 19.42618 | 36922 ft | 483 kts | 85° |
| 2026-05-06 17:44 | 44.62864 | 19.51971 | 36915 ft | 482 kts | 84° |
| 2026-05-06 17:45 | 44.63676 | 19.61303 | 36906 ft | 482 kts | 84° |
| 2026-05-06 17:45 | 44.64435 | 19.70644 | 36901 ft | 481 kts | 85° |
| 2026-05-06 17:46 | 44.65160 | 19.79969 | 36901 ft | 480 kts | 85° |
| 2026-05-06 17:46 | 44.65871 | 19.89275 | 36902 ft | 479 kts | 85° |
| 2026-05-06 17:47 | 44.66577 | 19.98598 | 36906 ft | 479 kts | 85° |
| 2026-05-06 17:47 | 44.67276 | 20.07908 | 36905 ft | 479 kts | 85° |
| 2026-05-06 17:48 | 44.67968 | 20.17208 | 36909 ft | 479 kts | 85° |
| 2026-05-06 17:48 | 44.68651 | 20.26514 | 36909 ft | 479 kts | 84° |
| 2026-05-06 17:49 | 44.69327 | 20.35815 | 36918 ft | 479 kts | 84° |
| 2026-05-06 17:49 | 44.69996 | 20.45139 | 36909 ft | 479 kts | 84° |
| 2026-05-06 17:50 | 44.70658 | 20.54457 | 36912 ft | 479 kts | 84° |
| 2026-05-06 17:50 | 44.71313 | 20.63790 | 36914 ft | 479 kts | 84° |
| 2026-05-06 17:51 | 44.71960 | 20.73127 | 36910 ft | 479 kts | 84° |
| 2026-05-06 17:51 | 44.72599 | 20.82455 | 36913 ft | 479 kts | 84° |
| 2026-05-06 17:52 | 44.73226 | 20.91726 | 36913 ft | 479 kts | 84° |
| 2026-05-06 17:52 | 44.73849 | 21.01046 | 36916 ft | 478 kts | 84° |
| 2026-05-06 17:53 | 44.74464 | 21.10358 | 36920 ft | 478 kts | 84° |
| 2026-05-06 17:53 | 44.75071 | 21.19664 | 36919 ft | 478 kts | 84° |
| 2026-05-06 17:54 | 44.75670 | 21.28973 | 36925 ft | 477 kts | 84° |
| 2026-05-06 17:54 | 44.76261 | 21.38270 | 36924 ft | 477 kts | 84° |
| 2026-05-06 17:55 | 44.76845 | 21.47569 | 36931 ft | 477 kts | 84° |
| 2026-05-06 17:55 | 44.77327 | 21.56890 | 36937 ft | 477 kts | 88° |
| 2026-05-06 17:56 | 44.77433 | 21.66227 | 36944 ft | 477 kts | 89° |
| 2026-05-06 17:56 | 44.77455 | 21.75587 | 36950 ft | 479 kts | 89° |
| 2026-05-06 17:57 | 44.77501 | 21.84966 | 36948 ft | 479 kts | 89° |
| 2026-05-06 17:57 | 44.77566 | 21.94331 | 36951 ft | 478 kts | 89° |
| 2026-05-06 17:58 | 44.77632 | 22.03679 | 36970 ft | 477 kts | 89° |
| 2026-05-06 17:58 | 44.77691 | 22.12964 | 36972 ft | 477 kts | 89° |
| 2026-05-06 17:59 | 44.77740 | 22.22307 | 36969 ft | 477 kts | 89° |
| 2026-05-06 17:59 | 44.77782 | 22.31637 | 36970 ft | 477 kts | 89° |
| 2026-05-06 18:00 | 44.77816 | 22.40965 | 36985 ft | 476 kts | 89° |
| 2026-05-06 18:00 | 44.77842 | 22.50297 | 36974 ft | 477 kts | 89° |
| 2026-05-06 18:01 | 44.77861 | 22.59634 | 36956 ft | 477 kts | 88° |
| 2026-05-06 18:01 | 44.77872 | 22.68974 | 36973 ft | 478 kts | 88° |
| 2026-05-06 18:02 | 44.77875 | 22.78338 | 36960 ft | 479 kts | 88° |
| 2026-05-06 18:02 | 44.77871 | 22.87716 | 36967 ft | 479 kts | 88° |
| 2026-05-06 18:03 | 44.77862 | 22.94983 | 36975 ft | 480 kts | 88° |
| 2026-05-06 18:03 | 44.77845 | 23.04387 | 36968 ft | 480 kts | 88° |
| 2026-05-06 18:04 | 44.77675 | 23.13793 | 36967 ft | 481 kts | 93° |
| 2026-05-06 18:04 | 44.77360 | 23.18430 | 36941 ft | 469 kts | 95° |
| 2026-05-06 18:04 | 44.76993 | 23.22917 | 36940 ft | 454 kts | 95° |
| 2026-05-06 18:05 | 44.76621 | 23.27262 | 36941 ft | 439 kts | 95° |
| 2026-05-06 18:05 | 44.76265 | 23.31488 | 36950 ft | 432 kts | 95° |
| 2026-05-06 18:05 | 44.75588 | 23.39939 | 36987 ft | 439 kts | 94° |
| 2026-05-06 18:06 | 44.74925 | 23.48554 | 36981 ft | 447 kts | 94° |
| 2026-05-06 18:06 | 44.74257 | 23.57255 | 36945 ft | 452 kts | 94° |
| 2026-05-06 18:07 | 44.73916 | 23.61655 | 36413 ft | 454 kts | 94° |
| 2026-05-06 18:07 | 44.73571 | 23.66090 | 35613 ft | 459 kts | 94° |
| 2026-05-06 18:07 | 44.73218 | 23.70619 | 34538 ft | 472 kts | 94° |
| 2026-05-06 18:07 | 44.72856 | 23.75244 | 33695 ft | 478 kts | 94° |
| 2026-05-06 18:08 | 44.72487 | 23.79904 | 32872 ft | 480 kts | 94° |
| 2026-05-06 18:08 | 44.72114 | 23.84586 | 32096 ft | 484 kts | 94° |
| 2026-05-06 18:08 | 44.71733 | 23.89352 | 31386 ft | 498 kts | 94° |
| 2026-05-06 18:08 | 44.71340 | 23.94262 | 30734 ft | 509 kts | 94° |
| 2026-05-06 18:09 | 44.70941 | 23.99180 | 30105 ft | 501 kts | 95° |
| 2026-05-06 18:09 | 44.70544 | 24.04028 | 29408 ft | 496 kts | 95° |
| 2026-05-06 18:09 | 44.70151 | 24.08818 | 28706 ft | 491 kts | 95° |
| 2026-05-06 18:09 | 44.69759 | 24.13567 | 27961 ft | 488 kts | 95° |
| 2026-05-06 18:10 | 44.69366 | 24.18319 | 27068 ft | 488 kts | 95° |
| 2026-05-06 18:10 | 44.68973 | 24.23072 | 26098 ft | 490 kts | 95° |
| 2026-05-06 18:10 | 44.68577 | 24.27826 | 25346 ft | 488 kts | 95° |
| 2026-05-06 18:10 | 44.68183 | 24.32525 | 24803 ft | 480 kts | 96° |
| 2026-05-06 18:11 | 44.67792 | 24.37147 | 24257 ft | 473 kts | 96° |
| 2026-05-06 18:11 | 44.67536 | 24.40175 | 23866 ft | 469 kts | 96° |
| 2026-05-06 18:11 | 44.67022 | 24.46225 | 22951 ft | 464 kts | 96° |
| 2026-05-06 18:11 | 44.66640 | 24.50693 | 22285 ft | 458 kts | 96° |
| 2026-05-06 18:12 | 44.66260 | 24.55108 | 21656 ft | 452 kts | 96° |
| 2026-05-06 18:12 | 44.65884 | 24.59468 | 21028 ft | 447 kts | 96° |
| 2026-05-06 18:12 | 44.65510 | 24.63785 | 20391 ft | 442 kts | 96° |
| 2026-05-06 18:12 | 44.65139 | 24.68050 | 19783 ft | 438 kts | 97° |
| 2026-05-06 18:13 | 44.64770 | 24.72274 | 19165 ft | 434 kts | 97° |
| 2026-05-06 18:13 | 44.64402 | 24.76461 | 18564 ft | 430 kts | 97° |
| 2026-05-06 18:13 | 44.64036 | 24.80613 | 17928 ft | 426 kts | 97° |
| 2026-05-06 18:13 | 44.63673 | 24.84713 | 17321 ft | 421 kts | 97° |
| 2026-05-06 18:14 | 44.63315 | 24.88738 | 17044 ft | 408 kts | 97° |
| 2026-05-06 18:14 | 44.62968 | 24.92624 | 16929 ft | 393 kts | 97° |
| 2026-05-06 18:14 | 44.62637 | 24.96313 | 16819 ft | 379 kts | 97° |
| 2026-05-06 18:14 | 44.62309 | 24.99966 | 16711 ft | 366 kts | 97° |
| 2026-05-06 18:15 | 44.61998 | 25.03407 | 16612 ft | 354 kts | 97° |
| 2026-05-06 18:15 | 44.61693 | 25.06776 | 16542 ft | 342 kts | 97° |
| 2026-05-06 18:15 | 44.61397 | 25.10033 | 16457 ft | 331 kts | 97° |
| 2026-05-06 18:15 | 44.61111 | 25.13169 | 16366 ft | 316 kts | 97° |
| 2026-05-06 18:16 | 44.60836 | 25.16175 | 16065 ft | 307 kts | 97° |
| 2026-05-06 18:16 | 44.60563 | 25.19153 | 15673 ft | 308 kts | 97° |
| 2026-05-06 18:16 | 44.60292 | 25.22099 | 15577 ft | 297 kts | 97° |
| 2026-05-06 18:16 | 44.60034 | 25.24890 | 15592 ft | 278 kts | 97° |
| 2026-05-06 18:17 | 44.59793 | 25.27498 | 15511 ft | 262 kts | 97° |
| 2026-05-06 18:17 | 44.59565 | 25.29951 | 15406 ft | 245 kts | 97° |
| 2026-05-06 18:17 | 44.59352 | 25.32239 | 15270 ft | 228 kts | 97° |
| 2026-05-06 18:17 | 44.59152 | 25.34389 | 14975 ft | 219 kts | 97° |
| 2026-05-06 18:18 | 44.58955 | 25.36500 | 14581 ft | 216 kts | 97° |
| 2026-05-06 18:18 | 44.58759 | 25.38598 | 14150 ft | 218 kts | 97° |
| 2026-05-06 18:18 | 44.58562 | 25.40706 | 13773 ft | 217 kts | 97° |
| 2026-05-06 18:18 | 44.58365 | 25.42799 | 13369 ft | 216 kts | 97° |
| 2026-05-06 18:19 | 44.58167 | 25.44902 | 12756 ft | 224 kts | 97° |
| 2026-05-06 18:19 | 44.57958 | 25.47129 | 12003 ft | 234 kts | 97° |
| 2026-05-06 18:19 | 44.57739 | 25.49452 | 11238 ft | 245 kts | 97° |
| 2026-05-06 18:19 | 44.57512 | 25.51845 | 10711 ft | 245 kts | 97° |
| 2026-05-06 18:20 | 44.57296 | 25.54112 | 10592 ft | 226 kts | 96° |
| 2026-05-06 18:20 | 44.57094 | 25.56216 | 10449 ft | 210 kts | 96° |
| 2026-05-06 18:20 | 44.56903 | 25.58214 | 10145 ft | 205 kts | 96° |
| 2026-05-06 18:20 | 44.56716 | 25.60184 | 9839 ft | 202 kts | 96° |
| 2026-05-06 18:21 | 44.56531 | 25.62124 | 9488 ft | 201 kts | 96° |
| 2026-05-06 18:21 | 44.56408 | 25.63416 | 9206 ft | 202 kts | 96° |
| 2026-05-06 18:21 | 44.56221 | 25.65369 | 8836 ft | 201 kts | 96° |
| 2026-05-06 18:21 | 44.55974 | 25.67940 | 8317 ft | 202 kts | 96° |
| 2026-05-06 18:22 | 44.55778 | 25.69989 | 7527 ft | 222 kts | 97° |
| 2026-05-06 18:22 | 44.55565 | 25.72212 | 6901 ft | 234 kts | 97° |
| 2026-05-06 18:22 | 44.55345 | 25.74483 | 6478 ft | 235 kts | 97° |
| 2026-05-06 18:22 | 44.55198 | 25.76002 | 6194 ft | 230 kts | 97° |
| 2026-05-06 18:23 | 44.54981 | 25.78222 | 5611 ft | 230 kts | 97° |
| 2026-05-06 18:23 | 44.54766 | 25.80434 | 5058 ft | 228 kts | 97° |
| 2026-05-06 18:23 | 44.54631 | 25.82649 | 4499 ft | 225 kts | 88° |
| 2026-05-06 18:23 | 44.54768 | 25.84809 | 3957 ft | 224 kts | 84° |
| 2026-05-06 18:24 | 44.54946 | 25.86968 | 3419 ft | 222 kts | 85° |
| 2026-05-06 18:24 | 44.55105 | 25.89061 | 3173 ft | 207 kts | 85° |
| 2026-05-06 18:24 | 44.55247 | 25.91004 | 3024 ft | 188 kts | 86° |
| 2026-05-06 18:24 | 44.55373 | 25.92727 | 2929 ft | 165 kts | 86° |
| 2026-05-06 18:25 | 44.55483 | 25.94213 | 2743 ft | 143 kts | 87° |
| 2026-05-06 18:25 | 44.55484 | 25.94232 | 2736 ft | 143 kts | 87° |
| 2026-05-06 18:25 | 44.55575 | 25.95495 | 2306 ft | 142 kts | 88° |
| 2026-05-06 18:25 | 44.55673 | 25.96850 | 1868 ft | 138 kts | 89° |
| 2026-05-06 18:26 | 44.55769 | 25.98152 | 1586 ft | 131 kts | 88° |
| 2026-05-06 18:26 | 44.55885 | 25.99461 | 1383 ft | 137 kts | 83° |
| 2026-05-06 18:26 | 44.56018 | 26.00790 | 1303 ft | 138 kts | 88° |
| 2026-05-06 18:26 | 44.56101 | 26.02165 | 1107 ft | 142 kts | 88° |
| 2026-05-06 18:27 | 44.56167 | 26.03535 | 927 ft | 140 kts | 85° |
| 2026-05-06 18:27 | 44.56259 | 26.04884 | 729 ft | 139 kts | 85° |
| 2026-05-06 18:27 | 44.56359 | 26.06208 | 537 ft | 133 kts | 84° |
| 2026-05-06 18:27 | 44.56451 | 26.07472 | 381 ft | 126 kts | 85° |
| 2026-05-06 18:28 | 44.56535 | 26.08591 | 322 ft | 97 kts | 84° |
| 2026-05-06 18:28 | 44.56590 | 26.09327 | 321 ft | 54 kts | 84° |
| 2026-05-06 18:28 | 44.56614 | 26.09652 | 322 ft | 20 kts | 83° |
| 2026-05-06 18:28 | 44.56629 | 26.09848 | 321 ft | 20 kts | 84° |
| 2026-05-06 18:29 | 44.56643 | 26.10041 | 322 ft | 22 kts | 84° |
| 2026-05-06 18:29 | 44.56662 | 26.10306 | 321 ft | 32 kts | 84° |
| 2026-05-06 18:29 | 44.56688 | 26.10656 | 322 ft | 37 kts | 82° |
| 2026-05-06 18:29 | 44.56805 | 26.10758 | 319 ft | 22 kts | 353° |
| 2026-05-06 18:30 | 44.56853 | 26.10750 | 321 ft | 0 kts | 356° |
| 2026-05-06 18:31 | 44.56855 | 26.10750 | 321 ft | 1 kts | 356° |
| 2026-05-06 18:31 | 44.56869 | 26.10749 | 320 ft | 3 kts | 356° |
| 2026-05-06 18:32 | 44.56898 | 26.10745 | 321 ft | 5 kts | 353° |
| 2026-05-06 18:32 | 44.56938 | 26.10738 | 321 ft | 7 kts | 352° |
| 2026-05-06 18:32 | 44.56990 | 26.10711 | 321 ft | 9 kts | 329° |
| 2026-05-06 18:32 | 44.57033 | 26.10637 | 321 ft | 11 kts | 302° |
| 2026-05-06 18:33 | 44.57066 | 26.10529 | 321 ft | 13 kts | 275° |
| 2026-05-06 18:33 | 44.57058 | 26.10390 | 321 ft | 15 kts | 263° |
| 2026-05-06 18:33 | 44.57045 | 26.10230 | 321 ft | 18 kts | 264° |
| 2026-05-06 18:33 | 44.57032 | 26.10050 | 321 ft | 20 kts | 264° |
| 2026-05-06 18:34 | 44.57017 | 26.09860 | 321 ft | 20 kts | 264° |
| 2026-05-06 18:34 | 44.57002 | 26.09660 | 321 ft | 21 kts | 264° |
| 2026-05-06 18:34 | 44.56986 | 26.09457 | 321 ft | 21 kts | 264° |
| 2026-05-06 18:34 | 44.56970 | 26.09244 | 321 ft | 22 kts | 263° |
| 2026-05-06 18:35 | 44.56954 | 26.09032 | 321 ft | 22 kts | 264° |
| 2026-05-06 18:35 | 44.56938 | 26.08823 | 321 ft | 22 kts | 263° |
| 2026-05-06 18:35 | 44.56922 | 26.08630 | 321 ft | 16 kts | 263° |
| 2026-05-06 18:35 | 44.56989 | 26.08540 | 322 ft | 16 kts | 352° |
| 2026-05-06 18:36 | 44.57104 | 26.08523 | 321 ft | 17 kts | 354° |
| 2026-05-06 18:36 | 44.57218 | 26.08497 | 322 ft | 13 kts | 324° |
| 2026-05-06 18:36 | 44.57227 | 26.08419 | 322 ft | 9 kts | 264° |
| 2026-05-06 18:36 | 44.57221 | 26.08320 | 320 ft | 11 kts | 264° |
| 2026-05-06 18:37 | 44.57212 | 26.08198 | 322 ft | 14 kts | 263° |
| 2026-05-06 18:37 | 44.57210 | 26.08109 | 322 ft | 6 kts | 300° |
| 2026-05-06 18:37 | 44.57226 | 26.08104 | 322 ft | 3 kts | 2° |
| 2026-05-06 18:37 | 44.57257 | 26.08100 | 322 ft | 6 kts | 353° |
| 2026-05-06 18:38 | 44.57265 | 26.08099 | 321 ft | 0 kts | 353° |